Time;durP1;ratioP1;P1;durP2;ratioP2;P2;SDS_P1;SDS_P2;PMS_P1;PMS_P2;Temp;Humidity;BMP_temperature;BMP_pressure;BME280_temperature;BME280_humidity;BME280_pressure;Samples;Min_cycle;Max_cycle;Signal;HPM_P1;HPM_P2
2023/11/19 00:02:26;;;;;;;178.60;89.80;;;;;;;-0.91;86.79;99337.17;221668;1298;25685;-77
2023/11/19 00:07:32;;;;;;;176.30;87.60;;;;;;;-0.92;87.26;99338.11;221555;1303;22570;-77
2023/11/19 00:12:38;;;;;;;190.00;93.40;;;;;;;-0.94;86.96;99325.94;221588;1301;22578;-77
2023/11/19 00:17:45;;;;;;;183.20;90.90;;;;;;;-0.93;87.22;99318.29;221801;1295;22563;-77
2023/11/19 00:22:50;;;;;;;180.40;90.10;;;;;;;-0.92;87.39;99324.39;221672;1301;22624;-77
2023/11/19 00:27:56;;;;;;;184.90;92.20;;;;;;;-0.90;86.95;99323.75;221658;1295;22721;-77
2023/11/19 00:32:59;;;;;;;203.50;96.70;;;;;;;-0.89;87.53;99315.88;222037;1302;22571;-77
2023/11/19 00:38:02;;;;;;;189.80;87.20;;;;;;;-0.87;87.49;99323.86;221686;1301;22688;-77
2023/11/19 00:43:04;;;;;;;149.10;72.20;;;;;;;-0.86;87.29;99335.73;221745;1301;22688;-76
2023/11/19 00:48:07;;;;;;;147.40;72.30;;;;;;;-0.87;87.24;99334.94;221621;1301;26099;-76
2023/11/19 00:53:10;;;;;;;149.00;69.00;;;;;;;-0.88;87.42;99317.69;221573;1303;22997;-77
2023/11/19 00:58:12;;;;;;;152.70;66.40;;;;;;;-0.85;87.41;99305.27;221724;1301;22761;-77
2023/11/19 01:03:15;;;;;;;153.00;70.50;;;;;;;-0.85;87.64;99305.23;221570;1301;22588;-76
2023/11/19 01:08:17;;;;;;;145.70;65.50;;;;;;;-0.87;87.68;99298.27;221565;1298;22627;-76
2023/11/19 01:13:19;;;;;;;139.50;64.50;;;;;;;-0.90;87.77;99287.83;221618;1301;22555;-77
2023/11/19 01:18:22;;;;;;;138.90;63.00;;;;;;;-0.92;87.67;99280.53;221721;1299;22578;-77
2023/11/19 01:23:24;;;;;;;142.30;63.10;;;;;;;-0.96;87.92;99274.20;221774;1301;22633;-76
2023/11/19 01:28:26;;;;;;;143.20;61.60;;;;;;;-0.97;87.89;99256.45;221742;1301;22582;-76
2023/11/19 01:33:28;;;;;;;131.50;57.40;;;;;;;-0.94;87.90;99237.63;221751;1300;22778;-76
2023/11/19 01:38:34;;;;;;;133.60;58.50;;;;;;;-0.92;87.79;99246.81;221598;1301;22870;-76
2023/11/19 01:43:37;;;;;;;152.60;65.30;;;;;;;-0.93;87.82;99245.14;221705;1301;22623;-76
2023/11/19 01:48:44;;;;;;;151.40;68.10;;;;;;;-0.94;87.93;99233.79;221449;1303;142932;-76
2023/11/19 01:53:48;;;;;;;158.60;67.80;;;;;;;-0.96;87.91;99215.21;221574;1301;22613;-76
2023/11/19 01:58:50;;;;;;;127.30;55.10;;;;;;;-0.96;87.92;99201.41;221481;1303;25284;-77
2023/11/19 02:03:53;;;;;;;168.80;77.20;;;;;;;-0.96;88.17;99178.75;221645;1298;22586;-77
2023/11/19 02:08:55;;;;;;;157.10;74.30;;;;;;;-0.96;87.86;99144.38;221482;1303;22648;-77
2023/11/19 02:13:58;;;;;;;114.80;51.60;;;;;;;-0.98;87.80;99141.60;221666;1303;22890;-77
2023/11/19 02:19:00;;;;;;;108.90;49.20;;;;;;;-1.02;87.62;99130.63;221298;1303;22593;-77
2023/11/19 02:24:08;;;;;;;102.70;47.20;;;;;;;-1.09;87.37;99121.06;221539;1301;25462;-77
2023/11/19 02:29:11;;;;;;;107.80;50.40;;;;;;;-1.17;87.24;99120.59;221720;1303;22600;-78
2023/11/19 02:34:16;;;;;;;115.00;53.20;;;;;;;-1.24;87.40;99106.05;221717;1301;24492;-78
2023/11/19 02:39:21;;;;;;;102.00;47.40;;;;;;;-1.28;87.61;99090.63;221297;1303;22582;-78
2023/11/19 02:44:23;;;;;;;93.80;46.00;;;;;;;-1.34;87.37;99085.98;221535;1301;25395;-78
2023/11/19 02:49:26;;;;;;;101.70;48.00;;;;;;;-1.40;87.28;99069.50;221570;1301;22821;-79
2023/11/19 02:54:29;;;;;;;96.20;47.90;;;;;;;-1.46;87.51;99071.27;221446;1303;22665;-80
2023/11/19 02:59:38;;;;;;;115.50;53.80;;;;;;;-1.51;87.51;99062.13;221375;1303;22611;-78
2023/11/19 03:04:43;;;;;;;125.20;59.00;;;;;;;-1.53;87.58;99081.81;221391;1301;24337;-78
2023/11/19 03:09:46;;;;;;;136.70;61.90;;;;;;;-1.54;87.99;99074.92;221603;1301;22635;-79
2023/11/19 03:14:50;;;;;;;123.60;57.30;;;;;;;-1.53;88.01;99065.71;221444;1303;22583;-79
2023/11/19 03:19:52;;;;;;;117.90;57.70;;;;;;;-1.52;88.06;99045.63;221515;1303;22583;-79
2023/11/19 03:24:55;;;;;;;122.10;60.40;;;;;;;-1.52;87.92;99027.35;221424;1303;22578;-78
2023/11/19 03:29:57;;;;;;;117.60;56.00;;;;;;;-1.53;88.00;99023.77;221532;1298;22671;-79
2023/11/19 03:34:59;;;;;;;106.90;52.80;;;;;;;-1.51;87.97;99028.99;221727;1301;22601;-78
2023/11/19 03:40:04;;;;;;;108.00;52.70;;;;;;;-1.49;88.22;99033.70;221684;1301;22586;-79
2023/11/19 03:45:11;;;;;;;92.60;41.50;;;;;;;-1.47;88.08;99011.39;221683;1303;22677;-80
2023/11/19 03:50:15;;;;;;;125.40;56.80;;;;;;;-1.42;88.33;99007.25;221769;1301;25332;-80
2023/11/19 03:55:18;;;;;;;103.10;49.50;;;;;;;-1.37;88.32;98985.53;221531;1303;22997;-78
2023/11/19 04:00:20;;;;;;;108.20;51.80;;;;;;;-1.33;88.35;98970.56;221550;1303;22556;-79
2023/11/19 04:05:23;;;;;;;107.90;49.70;;;;;;;-1.30;88.28;98960.98;221448;1303;22618;-78
2023/11/19 04:10:27;;;;;;;100.90;49.60;;;;;;;-1.27;88.38;98954.73;221478;1303;22894;-79
2023/11/19 04:15:31;;;;;;;117.00;53.00;;;;;;;-1.25;88.34;98969.46;221481;1303;24327;-78
2023/11/19 04:20:33;;;;;;;111.60;52.90;;;;;;;-1.23;88.31;98981.07;221464;1303;24652;-78
2023/11/19 04:25:36;;;;;;;107.80;52.10;;;;;;;-1.20;88.34;98966.86;221601;1301;22582;-78
2023/11/19 04:30:39;;;;;;;114.20;53.50;;;;;;;-1.17;88.58;98953.27;221635;1303;22502;-79
2023/11/19 04:35:41;;;;;;;121.10;54.70;;;;;;;-1.11;88.56;98943.00;221695;1301;22575;-79
2023/11/19 04:40:43;;;;;;;135.80;60.50;;;;;;;-1.06;88.56;98939.02;221753;1303;26749;-79
2023/11/19 04:45:46;;;;;;;130.30;59.80;;;;;;;-0.98;88.66;98941.05;221573;1301;22617;-79
2023/11/19 04:50:48;;;;;;;137.90;61.70;;;;;;;-0.94;88.74;98935.21;221506;1303;22595;-79
2023/11/19 04:55:51;;;;;;;119.40;54.30;;;;;;;-0.88;88.63;98905.39;221586;1303;22592;-79
2023/11/19 05:00:53;;;;;;;139.40;60.80;;;;;;;-0.81;88.80;98888.58;221589;1301;23107;-78
2023/11/19 05:05:56;;;;;;;143.60;66.50;;;;;;;-0.73;88.77;98893.19;221525;1288;22580;-79
2023/11/19 05:10:59;;;;;;;120.70;58.60;;;;;;;-0.64;88.72;98888.75;221495;1303;24308;-78
2023/11/19 05:16:01;;;;;;;157.40;76.30;;;;;;;-0.56;88.60;98879.30;221599;1301;22673;-79
2023/11/19 05:21:04;;;;;;;177.60;82.60;;;;;;;-0.50;88.84;98869.70;221724;1301;22616;-79
2023/11/19 05:26:06;;;;;;;138.70;70.70;;;;;;;-0.43;88.98;98853.37;221660;1301;22579;-79
2023/11/19 05:31:09;;;;;;;176.70;92.40;;;;;;;-0.36;88.42;98840.42;221421;1303;27604;-77
2023/11/19 05:36:12;;;;;;;150.80;78.90;;;;;;;-0.28;88.43;98823.55;221567;1303;22626;-77
2023/11/19 05:41:15;;;;;;;132.90;70.10;;;;;;;-0.22;88.31;98814.77;221534;1303;23211;-77
2023/11/19 05:46:17;;;;;;;122.20;64.80;;;;;;;-0.16;88.23;98829.19;221568;1301;22656;-77
2023/11/19 05:51:23;;;;;;;112.20;54.80;;;;;;;-0.11;88.26;98864.04;221615;1285;22640;-78
2023/11/19 05:56:32;;;;;;;111.20;58.10;;;;;;;-0.06;88.05;98862.67;221648;1302;22635;-77
2023/11/19 06:01:34;;;;;;;109.20;56.50;;;;;;;-0.04;87.99;98855.77;221621;1303;22583;-78
2023/11/19 06:06:37;;;;;;;109.10;54.90;;;;;;;-0.06;87.81;98844.15;221752;1303;22575;-78
2023/11/19 06:11:39;;;;;;;103.10;52.40;;;;;;;-0.08;88.11;98839.40;221736;1301;22621;-78
2023/11/19 06:16:41;;;;;;;98.40;45.10;;;;;;;-0.02;88.04;98827.14;221475;1303;22571;-78
2023/11/19 06:21:43;;;;;;;81.80;43.40;;;;;;;0.07;88.16;98810.77;221769;1303;27696;-78
2023/11/19 06:26:46;;;;;;;82.30;40.30;;;;;;;0.13;87.97;98803.84;221427;1304;22600;-77
2023/11/19 06:31:49;;;;;;;74.00;36.70;;;;;;;0.20;88.00;98783.69;221453;1303;22594;-77
2023/11/19 06:36:52;;;;;;;64.40;34.60;;;;;;;0.25;87.44;98766.14;221499;1303;22675;-77
2023/11/19 06:41:55;;;;;;;69.30;38.40;;;;;;;0.33;87.67;98768.63;221501;1303;22607;-77
2023/11/19 06:46:57;;;;;;;75.00;43.00;;;;;;;0.41;87.79;98765.37;221666;1303;22599;-77
2023/11/19 06:51:59;;;;;;;81.00;42.20;;;;;;;0.48;87.80;98759.09;221289;1303;22605;-77
2023/11/19 06:57:02;;;;;;;73.00;38.50;;;;;;;0.55;87.41;98769.56;221405;1302;22575;-77
2023/11/19 07:02:06;;;;;;;64.00;33.00;;;;;;;0.67;87.46;98751.44;221477;1286;24989;-76
2023/11/19 07:07:08;;;;;;;60.40;31.30;;;;;;;0.78;87.54;98758.84;221391;1283;22575;-77
2023/11/19 07:12:10;;;;;;;52.80;27.90;;;;;;;0.88;87.42;98757.70;221349;1304;22517;-77
2023/11/19 07:17:12;;;;;;;46.90;26.50;;;;;;;0.97;87.68;98747.51;221610;1303;22571;-77
2023/11/19 07:22:15;;;;;;;50.60;28.10;;;;;;;1.07;87.30;98744.98;221611;1302;22577;-78
2023/11/19 07:27:17;;;;;;;51.10;27.10;;;;;;;1.17;87.28;98748.82;221650;1303;22749;-78
2023/11/19 07:32:19;;;;;;;57.50;30.50;;;;;;;1.26;87.15;98757.37;221452;1303;22576;-77
2023/11/19 07:37:22;;;;;;;51.00;28.30;;;;;;;1.38;87.32;98723.39;221605;1303;22591;-78
2023/11/19 07:42:24;;;;;;;49.70;29.50;;;;;;;1.45;86.77;98721.38;221565;1286;22610;-77
2023/11/19 07:47:28;;;;;;;53.10;30.60;;;;;;;1.58;86.87;98709.71;221536;1286;22574;-78
2023/11/19 07:52:31;;;;;;;46.90;28.20;;;;;;;1.71;86.40;98693.33;221581;1302;22611;-78
2023/11/19 07:57:33;;;;;;;45.40;28.10;;;;;;;1.80;86.49;98677.95;221458;1302;22575;-78
2023/11/19 08:02:35;;;;;;;50.60;29.40;;;;;;;1.88;86.27;98666.61;221513;1303;22609;-79
2023/11/19 08:07:39;;;;;;;48.00;30.10;;;;;;;1.98;86.31;98664.98;221381;1303;22570;-80
2023/11/19 08:12:43;;;;;;;46.80;27.20;;;;;;;2.08;85.82;98654.02;221415;1303;22569;-78
2023/11/19 08:17:47;;;;;;;41.90;25.20;;;;;;;2.16;86.16;98660.97;221538;1303;22614;-78
2023/11/19 08:22:51;;;;;;;42.50;25.50;;;;;;;2.19;85.49;98664.73;221391;1303;22592;-78
2023/11/19 08:27:53;;;;;;;43.50;26.10;;;;;;;2.16;85.42;98652.13;221355;1303;25420;-77
2023/11/19 08:32:56;;;;;;;40.40;24.10;;;;;;;2.15;85.40;98636.06;221446;1303;22826;-78
2023/11/19 08:37:59;;;;;;;44.70;27.00;;;;;;;2.16;85.34;98637.02;221531;1303;22624;-78
2023/11/19 08:43:01;;;;;;;42.50;25.50;;;;;;;2.23;85.69;98645.35;221300;1303;22586;-79
2023/11/19 08:48:05;;;;;;;40.60;25.00;;;;;;;2.29;84.97;98646.75;221449;1303;22566;-79
2023/11/19 08:53:11;;;;;;;45.30;26.20;;;;;;;2.34;85.11;98633.61;221300;1303;25389;-79
2023/11/19 08:58:13;;;;;;;40.60;24.80;;;;;;;2.41;84.90;98619.04;221582;1301;22951;-77
2023/11/19 09:03:15;;;;;;;39.90;25.40;;;;;;;2.48;85.01;98604.52;221567;1303;22595;-78
2023/11/19 09:08:18;;;;;;;34.00;21.70;;;;;;;2.55;84.52;98610.83;221282;1297;22572;-79
2023/11/19 09:13:20;;;;;;;33.40;21.30;;;;;;;2.52;84.01;98618.23;221668;1285;23060;-78
2023/11/19 09:18:22;;;;;;;38.30;24.40;;;;;;;2.51;84.31;98612.27;221307;1303;22583;-78
2023/11/19 09:23:25;;;;;;;39.30;25.10;;;;;;;2.65;84.62;98597.73;221674;1286;22601;-79
2023/11/19 09:28:27;;;;;;;38.80;24.30;;;;;;;2.79;84.57;98573.61;221760;1295;22581;-79
2023/11/19 09:33:30;;;;;;;40.80;26.40;;;;;;;2.95;84.42;98564.80;221397;1294;22587;-78
2023/11/19 09:38:32;;;;;;;37.60;23.60;;;;;;;3.12;84.61;98543.82;221351;1302;22665;-79
2023/11/19 09:43:38;;;;;;;38.20;23.40;;;;;;;3.20;84.30;98525.96;221438;1303;22639;-79
2023/11/19 09:48:42;;;;;;;36.40;22.80;;;;;;;3.32;84.29;98519.30;221432;1294;22759;-77
2023/11/19 09:53:46;;;;;;;36.40;21.30;;;;;;;3.43;84.01;98506.70;221261;1303;22579;-80
2023/11/19 09:58:48;;;;;;;30.50;19.40;;;;;;;3.49;83.23;98492.17;221505;1302;25025;-79
2023/11/19 10:03:55;;;;;;;24.40;16.70;;;;;;;3.54;82.98;98487.02;221502;1303;24464;-79
2023/11/19 10:08:59;;;;;;;22.90;14.60;;;;;;;3.63;83.29;98463.67;221546;1298;22652;-79
2023/11/19 10:14:01;;;;;;;16.70;12.30;;;;;;;3.78;83.11;98459.73;221668;1303;22571;-79
2023/11/19 10:19:04;;;;;;;16.20;11.20;;;;;;;3.84;82.68;98460.52;221432;1301;22579;-79
2023/11/19 10:24:06;;;;;;;16.00;9.80;;;;;;;3.77;82.25;98445.16;221528;1295;22576;-79
2023/11/19 10:29:13;;;;;;;14.40;10.20;;;;;;;3.63;82.56;98442.42;221264;1303;22571;-78
2023/11/19 10:34:26;;;;;;;17.70;12.00;;;;;;;3.37;82.70;98432.10;221554;1302;25456;-79
2023/11/19 10:39:54;;;;;;;16.90;11.50;;;;;;;3.13;82.88;98414.28;221274;1303;22583;-79
2023/11/19 10:44:56;;;;;;;18.40;11.70;;;;;;;2.88;82.86;98402.51;221633;1301;23128;-79
2023/11/19 10:49:58;;;;;;;19.40;13.80;;;;;;;2.69;83.23;98410.79;221439;1303;22586;-80
2023/11/19 10:55:08;;;;;;;26.00;16.50;;;;;;;2.48;83.35;98403.88;221269;1303;22622;-79
2023/11/19 11:00:19;;;;;;;25.60;16.50;;;;;;;2.31;83.58;98385.97;221570;1303;23243;-79
2023/11/19 11:05:23;;;;;;;19.60;13.10;;;;;;;2.27;84.23;98384.67;221412;1303;22583;-80
2023/11/19 11:10:29;;;;;;;23.00;13.40;;;;;;;2.24;84.32;98379.98;221597;1303;26030;-80
2023/11/19 11:15:33;;;;;;;22.20;15.30;;;;;;;2.19;84.79;98370.02;221283;1303;22672;-78
2023/11/19 11:20:38;;;;;;;24.20;14.50;;;;;;;2.23;85.01;98351.89;221407;1303;22579;-78
2023/11/19 11:26:06;;;;;;;32.70;19.40;;;;;;;2.21;85.20;98344.71;221446;1301;22604;-78
2023/11/19 11:31:39;;;;;;;28.50;19.20;;;;;;;2.21;85.25;98329.89;221358;1303;22587;-78
2023/11/19 11:37:18;;;;;;;30.60;19.70;;;;;;;2.22;85.39;98321.33;221650;1303;22578;-79
2023/11/19 11:42:25;;;;;;;31.90;19.70;;;;;;;2.22;85.41;98312.05;221318;1303;22574;-79
2023/11/19 11:47:50;;;;;;;28.40;18.00;;;;;;;2.25;85.64;98309.14;221637;1301;23012;-79
2023/11/19 11:52:56;;;;;;;26.70;17.80;;;;;;;2.29;85.27;98307.42;221590;1296;23039;-79
2023/11/19 11:57:59;;;;;;;31.70;20.50;;;;;;;2.26;85.58;98302.86;221664;1300;22588;-79
2023/11/19 12:03:04;;;;;;;27.10;17.90;;;;;;;2.30;85.89;98305.23;221557;1301;22599;-79
2023/11/19 12:08:10;;;;;;;29.90;18.90;;;;;;;2.29;85.70;98305.66;221664;1303;22601;-78
2023/11/19 12:13:13;;;;;;;31.90;21.40;;;;;;;2.29;85.90;98293.34;221339;1291;23319;-79
2023/11/19 12:18:19;;;;;;;31.60;19.50;;;;;;;2.33;86.13;98280.98;221407;1303;22631;-78
2023/11/19 12:23:22;;;;;;;34.00;21.70;;;;;;;2.33;86.11;98268.93;221381;1303;22701;-79
2023/11/19 12:28:27;;;;;;;34.60;22.30;;;;;;;2.41;86.73;98260.02;221549;1303;25349;-80
2023/11/19 12:33:30;;;;;;;32.20;21.60;;;;;;;2.55;86.92;98249.80;221305;1303;22641;-80
2023/11/19 12:38:33;;;;;;;33.40;20.90;;;;;;;2.61;86.58;98239.42;221801;1303;22593;-79
2023/11/19 12:43:36;;;;;;;31.00;21.30;;;;;;;2.66;86.87;98219.05;221370;1303;22706;-79
2023/11/19 12:48:43;;;;;;;31.10;21.50;;;;;;;2.75;86.72;98218.02;221448;1301;22612;-80
2023/11/19 12:53:55;;;;;;;33.80;21.30;;;;;;;2.76;86.85;98222.94;221411;1301;22702;-78
2023/11/19 12:58:57;;;;;;;33.70;22.40;;;;;;;2.74;87.19;98216.05;221524;1301;24263;-78
2023/11/19 13:03:59;;;;;;;30.70;19.10;;;;;;;2.72;87.26;98209.51;221650;1301;22609;-79
2023/11/19 13:09:02;;;;;;;27.90;17.70;;;;;;;2.72;87.44;98200.27;221354;1303;22553;-81
2023/11/19 13:14:05;;;;;;;26.80;17.10;;;;;;;2.72;87.52;98183.94;221549;1301;22699;-78
2023/11/19 13:19:11;;;;;;;27.70;18.40;;;;;;;2.75;87.73;98190.33;221820;1303;22600;-78
2023/11/19 13:24:13;;;;;;;20.30;12.00;;;;;;;2.85;88.03;98181.02;222001;1301;22583;-78
2023/11/19 13:29:15;;;;;;;19.60;13.50;;;;;;;2.97;88.33;98168.71;221543;1301;22609;-79
2023/11/19 13:34:18;;;;;;;14.20;10.50;;;;;;;3.11;88.57;98163.05;221298;1302;22561;-79
2023/11/19 13:39:22;;;;;;;12.40;8.70;;;;;;;3.24;88.71;98154.48;221260;1303;22565;-80
2023/11/19 13:44:25;;;;;;;11.40;8.30;;;;;;;3.35;88.72;98151.63;221563;1301;22692;-80
2023/11/19 13:49:28;;;;;;;12.60;8.30;;;;;;;3.43;88.77;98156.51;221537;1303;177096;-80
2023/11/19 13:54:30;;;;;;;11.10;8.40;;;;;;;3.48;88.75;98158.73;221515;1301;22612;-79
2023/11/19 13:59:33;;;;;;;11.50;8.40;;;;;;;3.52;88.46;98151.48;221294;1300;23392;-79
2023/11/19 14:04:36;;;;;;;12.90;8.70;;;;;;;3.56;88.70;98151.83;221297;1303;24340;-79
2023/11/19 14:09:38;;;;;;;12.90;8.40;;;;;;;3.59;88.59;98142.84;221430;1303;22631;-80
2023/11/19 14:14:42;;;;;;;10.30;7.00;;;;;;;3.62;88.88;98138.17;221394;1303;22697;-79
2023/11/19 14:19:44;;;;;;;9.00;6.80;;;;;;;3.63;88.83;98139.79;221554;1301;22737;-81
2023/11/19 14:24:48;;;;;;;8.20;5.80;;;;;;;3.65;88.75;98130.55;221416;1297;22589;-79
2023/11/19 14:29:51;;;;;;;10.10;6.60;;;;;;;3.67;89.04;98133.08;221451;1303;22578;-80
2023/11/19 14:34:53;;;;;;;9.10;6.60;;;;;;;3.70;88.85;98133.31;221653;1303;22582;-80
2023/11/19 14:39:55;;;;;;;9.10;5.80;;;;;;;3.70;88.99;98131.39;221590;1301;22600;-79
2023/11/19 14:44:58;;;;;;;8.10;6.10;;;;;;;3.70;89.19;98129.06;221662;1298;22563;-78
2023/11/19 14:50:00;;;;;;;7.60;5.00;;;;;;;3.72;89.10;98123.96;221274;1303;22581;-80
2023/11/19 14:55:03;;;;;;;7.80;5.50;;;;;;;3.74;89.28;98129.22;221571;1303;22734;-79
2023/11/19 15:00:12;;;;;;;7.30;4.80;;;;;;;3.74;89.40;98133.02;221636;1301;22578;-79
2023/11/19 15:05:15;;;;;;;6.20;4.90;;;;;;;3.75;89.07;98136.21;221487;1280;22687;-79
2023/11/19 15:10:17;;;;;;;6.10;4.40;;;;;;;3.77;89.45;98143.37;221468;1303;22605;-79
2023/11/19 15:15:19;;;;;;;7.10;5.60;;;;;;;3.78;89.07;98139.39;221646;1298;22586;-80
2023/11/19 15:20:37;;;;;;;9.20;6.50;;;;;;;3.79;89.26;98140.48;221695;1303;23062;-79
2023/11/19 15:25:39;;;;;;;8.50;6.20;;;;;;;3.81;89.39;98155.48;221581;1301;22565;-79
2023/11/19 15:30:41;;;;;;;7.60;5.40;;;;;;;3.84;89.55;98150.95;221641;1299;22561;-79
2023/11/19 15:35:43;;;;;;;9.20;6.70;;;;;;;3.87;89.27;98144.16;221370;1303;22718;-77
2023/11/19 15:40:46;;;;;;;9.80;7.60;;;;;;;3.91;89.31;98143.92;221648;1301;22567;-78
2023/11/19 15:45:52;;;;;;;8.60;7.00;;;;;;;3.96;89.32;98148.02;221728;1297;22582;-79
2023/11/19 15:50:54;;;;;;;11.90;7.80;;;;;;;3.99;89.64;98146.97;221483;1302;25971;-79
2023/11/19 15:55:57;;;;;;;8.70;7.30;;;;;;;4.00;89.15;98139.54;221742;1298;23108;-80
2023/11/19 16:01:00;;;;;;;10.50;7.50;;;;;;;3.99;89.35;98128.98;221794;1302;23172;-79
2023/11/19 16:06:03;;;;;;;12.30;8.30;;;;;;;3.93;89.38;98125.46;221666;1302;22597;-79
2023/11/19 16:11:12;;;;;;;10.70;7.80;;;;;;;3.83;89.22;98131.70;221734;1302;22586;-80
2023/11/19 16:16:16;;;;;;;10.80;8.60;;;;;;;3.79;89.65;98141.59;221594;1301;25029;-80
2023/11/19 16:21:18;;;;;;;14.10;10.80;;;;;;;3.77;89.45;98150.63;221768;1298;22579;-80
2023/11/19 16:26:21;;;;;;;13.80;9.10;;;;;;;3.80;89.72;98149.66;221787;1295;22562;-79
2023/11/19 16:31:23;;;;;;;12.40;9.60;;;;;;;3.81;89.99;98141.49;221657;1301;22671;-80
2023/11/19 16:36:26;;;;;;;10.10;7.90;;;;;;;3.82;90.29;98133.40;221871;1301;22602;-80
2023/11/19 16:41:29;;;;;;;13.20;9.40;;;;;;;3.84;90.28;98135.83;221592;1302;22988;-78
2023/11/19 16:46:43;;;;;;;13.40;9.80;;;;;;;3.84;90.27;98138.54;221764;1301;22580;-78
2023/11/19 16:51:49;;;;;;;11.60;8.90;;;;;;;3.87;90.32;98140.31;221770;1302;23703;-80
2023/11/19 16:56:51;;;;;;;14.80;9.70;;;;;;;3.94;90.42;98152.71;221829;1300;22578;-80
2023/11/19 17:01:55;;;;;;;12.90;10.00;;;;;;;3.99;90.23;98156.23;221721;1298;23008;-79
2023/11/19 17:06:57;;;;;;;12.70;10.10;;;;;;;4.01;90.37;98150.02;221560;1302;22576;-79
2023/11/19 17:11:59;;;;;;;12.00;10.00;;;;;;;4.01;90.24;98141.19;221721;1301;22564;-79
2023/11/19 17:17:02;;;;;;;13.80;10.40;;;;;;;4.02;90.84;98144.38;221683;1302;22576;-80
2023/11/19 17:22:05;;;;;;;13.50;10.30;;;;;;;4.05;90.51;98149.38;221771;1301;22601;-80
2023/11/19 17:27:09;;;;;;;13.80;10.40;;;;;;;4.08;90.48;98153.77;221617;1302;22605;-79
2023/11/19 17:32:11;;;;;;;14.50;9.40;;;;;;;4.11;90.52;98158.02;221634;1302;22602;-79
2023/11/19 17:37:14;;;;;;;15.40;10.40;;;;;;;4.13;90.47;98157.31;221809;1302;22661;-80
2023/11/19 17:42:16;;;;;;;15.20;10.20;;;;;;;4.14;90.55;98145.68;221812;1302;22586;-79
2023/11/19 17:47:20;;;;;;;13.90;9.50;;;;;;;4.14;90.48;98145.65;221692;1302;22570;-79
2023/11/19 17:52:23;;;;;;;13.80;10.60;;;;;;;4.16;90.67;98147.55;221638;1301;22583;-80
2023/11/19 17:57:27;;;;;;;15.90;11.10;;;;;;;4.19;90.84;98145.99;221808;1303;22579;-78
2023/11/19 18:02:29;;;;;;;22.20;15.90;;;;;;;4.21;90.75;98148.25;221691;1301;22589;-79
2023/11/19 18:07:38;;;;;;;20.50;14.70;;;;;;;4.23;90.98;98132.64;221732;1301;22601;-80
2023/11/19 18:12:40;;;;;;;21.30;14.80;;;;;;;4.22;90.68;98136.03;221703;1298;22579;-79
2023/11/19 18:17:42;;;;;;;15.00;11.30;;;;;;;4.18;90.67;98133.09;221742;1301;23615;-77
2023/11/19 18:22:48;;;;;;;19.10;13.00;;;;;;;4.14;91.07;98137.19;221627;1302;22592;-79
2023/11/19 18:27:51;;;;;;;22.90;16.60;;;;;;;4.14;91.04;98126.30;221603;1298;23083;-79
2023/11/19 18:32:54;;;;;;;17.30;12.40;;;;;;;4.16;91.25;98128.87;221654;1285;22598;-77
2023/11/19 18:37:58;;;;;;;19.10;14.50;;;;;;;4.16;91.16;98129.19;221774;1301;22624;-78
2023/11/19 18:43:01;;;;;;;20.20;13.70;;;;;;;4.17;91.11;98132.07;221342;1302;22675;-76
2023/11/19 18:48:05;;;;;;;18.40;13.40;;;;;;;4.19;91.31;98123.91;221486;1298;25338;-78
2023/11/19 18:53:08;;;;;;;20.50;14.70;;;;;;;4.20;91.29;98129.98;221731;1301;22576;-77
2023/11/19 18:58:15;;;;;;;20.00;13.60;;;;;;;4.24;91.38;98122.96;221491;1298;22585;-78
2023/11/19 19:03:21;;;;;;;18.60;13.30;;;;;;;4.29;91.24;98125.94;221590;1302;22592;-77
2023/11/19 19:08:25;;;;;;;21.60;14.70;;;;;;;4.32;91.16;98115.82;221764;1296;22632;-77
2023/11/19 19:13:30;;;;;;;22.00;14.00;;;;;;;4.34;91.02;98115.85;221683;1295;22566;-77
2023/11/19 19:18:35;;;;;;;22.00;14.40;;;;;;;4.34;91.14;98124.91;221600;1302;22623;-78
2023/11/19 19:23:38;;;;;;;23.30;15.20;;;;;;;4.34;91.32;98124.31;221794;1302;22579;-77
2023/11/19 19:28:42;;;;;;;19.30;14.10;;;;;;;4.37;91.35;98124.10;221893;1298;22574;-77
2023/11/19 19:33:54;;;;;;;23.90;16.70;;;;;;;4.42;91.53;98146.32;221839;1301;22581;-77
2023/11/19 19:39:03;;;;;;;19.20;12.40;;;;;;;4.49;91.49;98155.86;221681;1301;22586;-78
2023/11/19 19:44:06;;;;;;;22.40;16.00;;;;;;;4.52;91.63;98142.74;221869;1302;22718;-76
2023/11/19 19:49:08;;;;;;;20.80;15.10;;;;;;;4.54;91.51;98147.42;221654;1301;22579;-77
2023/11/19 19:54:12;;;;;;;19.30;13.30;;;;;;;4.58;91.49;98152.11;221598;1301;22552;-77
2023/11/19 19:59:15;;;;;;;20.80;15.30;;;;;;;4.60;91.43;98145.35;221507;1302;22572;-77
2023/11/19 20:04:20;;;;;;;22.10;15.10;;;;;;;4.63;91.67;98146.16;221680;1301;22612;-77
2023/11/19 20:09:23;;;;;;;19.40;14.00;;;;;;;4.66;91.71;98144.98;221594;1302;24345;-76
2023/11/19 20:14:28;;;;;;;19.60;14.40;;;;;;;4.68;91.71;98137.20;221594;1301;22612;-77
2023/11/19 20:19:31;;;;;;;17.80;12.60;;;;;;;4.71;91.48;98137.83;221674;1301;22580;-78
2023/11/19 20:24:33;;;;;;;16.30;12.00;;;;;;;4.74;91.78;98140.72;221631;1301;22567;-78
2023/11/19 20:29:36;;;;;;;20.30;13.90;;;;;;;4.79;91.75;98141.75;221648;1301;22751;-77
2023/11/19 20:34:38;;;;;;;21.60;14.30;;;;;;;4.85;92.12;98140.57;221531;1301;23015;-77
2023/11/19 20:39:42;;;;;;;18.30;12.00;;;;;;;4.90;91.88;98140.88;221742;1302;25380;-76
2023/11/19 20:44:46;;;;;;;18.60;11.90;;;;;;;4.96;92.21;98138.11;221636;1302;25472;-77
2023/11/19 20:49:48;;;;;;;14.90;10.40;;;;;;;5.03;91.93;98135.16;221872;1300;22579;-76
2023/11/19 20:54:50;;;;;;;14.00;9.10;;;;;;;5.07;91.68;98130.23;221805;1279;22763;-76
2023/11/19 20:59:53;;;;;;;14.20;9.40;;;;;;;5.12;91.83;98133.21;221800;1301;22583;-77
2023/11/19 21:04:55;;;;;;;13.50;10.10;;;;;;;5.17;91.81;98134.29;221719;1301;22673;-75
2023/11/19 21:09:57;;;;;;;14.30;9.90;;;;;;;5.21;91.76;98137.62;221659;1301;24276;-76
2023/11/19 21:15:00;;;;;;;11.80;8.60;;;;;;;5.24;91.76;98129.92;221831;1302;22572;-76
2023/11/19 21:20:02;;;;;;;11.50;8.00;;;;;;;5.28;91.49;98128.08;221785;1301;22610;-77
2023/11/19 21:25:06;;;;;;;13.00;9.60;;;;;;;5.31;91.52;98119.99;221683;1301;22563;-77
2023/11/19 21:30:10;;;;;;;12.20;8.60;;;;;;;5.31;91.40;98118.52;221824;1301;22776;-77
2023/11/19 21:35:12;;;;;;;12.40;9.70;;;;;;;5.32;91.38;98125.94;221870;1298;22767;-77
2023/11/19 21:40:15;;;;;;;14.90;9.50;;;;;;;5.36;91.54;98128.98;221676;1301;22586;-77
2023/11/19 21:45:17;;;;;;;13.30;9.30;;;;;;;5.41;91.44;98140.10;221654;1301;22726;-78
2023/11/19 21:50:21;;;;;;;15.30;9.70;;;;;;;5.45;91.53;98135.17;221649;1302;24302;-76
2023/11/19 21:55:23;;;;;;;12.00;9.00;;;;;;;5.48;91.23;98134.65;221789;1295;22562;-77
2023/11/19 22:00:25;;;;;;;16.20;10.70;;;;;;;5.52;91.17;98133.35;221735;1292;22562;-77
2023/11/19 22:05:27;;;;;;;13.70;8.40;;;;;;;5.55;91.31;98128.40;221736;1301;23466;-77
2023/11/19 22:10:30;;;;;;;14.40;9.70;;;;;;;5.58;91.30;98120.92;221653;1302;22590;-77
2023/11/19 22:15:32;;;;;;;11.50;7.90;;;;;;;5.62;91.21;98121.17;221754;1301;22615;-77
2023/11/19 22:20:35;;;;;;;15.00;9.50;;;;;;;5.65;91.07;98117.34;221739;1301;26183;-78
2023/11/19 22:25:37;;;;;;;10.60;7.70;;;;;;;5.68;91.08;98115.21;221742;1301;23333;-76
2023/11/19 22:30:40;;;;;;;12.50;8.40;;;;;;;5.70;91.10;98116.02;221726;1295;24776;-76
2023/11/19 22:35:43;;;;;;;11.70;8.30;;;;;;;5.74;90.91;98122.05;221850;1295;22597;-76
2023/11/19 22:40:47;;;;;;;13.90;8.70;;;;;;;5.75;90.82;98111.63;221910;1302;22624;-77
2023/11/19 22:45:49;;;;;;;11.30;8.30;;;;;;;5.77;91.07;98113.95;221831;1301;22584;-77
2023/11/19 22:50:51;;;;;;;12.90;8.10;;;;;;;5.76;91.07;98107.16;221882;1298;22589;-77
2023/11/19 22:55:53;;;;;;;12.80;8.10;;;;;;;5.75;90.99;98111.79;221809;1301;22657;-76
2023/11/19 23:00:56;;;;;;;12.80;8.70;;;;;;;5.73;91.17;98116.73;221828;1301;22573;-76
2023/11/19 23:05:58;;;;;;;15.10;9.20;;;;;;;5.73;91.33;98123.25;221786;1302;22681;-77
2023/11/19 23:11:00;;;;;;;12.80;8.30;;;;;;;5.76;91.21;98119.97;221807;1302;22582;-76